createdAt,value
2022-12-01T07:26:01.438Z,1.38
2022-12-01T07:27:59.737Z,1.39
2022-12-01T07:29:57.997Z,1.37
2022-12-01T07:31:58.687Z,1.28
2022-12-01T07:33:56.954Z,1.16
2022-12-01T07:35:55.636Z,1.18
2022-12-01T07:37:55.961Z,1.22
2022-12-01T07:39:56.350Z,1.18
2022-12-01T07:41:56.110Z,1.17
2022-12-01T07:43:54.240Z,1.14
2022-12-01T07:45:52.773Z,1.19
2022-12-01T07:47:54.741Z,1.26
2022-12-01T07:49:53.510Z,1.40
2022-12-01T07:51:51.968Z,1.47
2022-12-01T07:53:54.906Z,1.43
2022-12-01T07:55:53.122Z,1.42
2022-12-01T07:57:53.540Z,1.40
2022-12-01T07:59:53.117Z,1.43
2022-12-01T08:01:51.308Z,1.51
2022-12-01T08:03:50.571Z,1.56
2022-12-01T08:05:57.765Z,1.60
2022-12-01T08:07:56.081Z,1.63
2022-12-01T08:09:54.456Z,1.66
2022-12-01T08:11:52.752Z,1.71
2022-12-01T08:13:53.430Z,1.66
2022-12-01T08:15:51.692Z,1.72
2022-12-01T08:17:50.003Z,1.75
2022-12-01T08:19:48.562Z,1.73
2022-12-01T08:21:47.096Z,1.77
2022-12-01T08:23:45.608Z,1.79
2022-12-01T08:25:43.942Z,1.83
2022-12-01T08:27:42.215Z,1.88
2022-12-01T08:29:41.915Z,1.89
2022-12-01T08:31:40.414Z,1.96
2022-12-01T08:33:43.932Z,1.93
2022-12-01T08:35:42.337Z,1.81
2022-12-01T08:37:40.664Z,1.77
2022-12-01T08:39:39.084Z,1.75
2022-12-01T08:41:37.357Z,1.77
2022-12-01T08:46:02.062Z,1.80
2022-12-01T08:48:00.574Z,1.78
2022-12-01T08:49:58.979Z,1.74
2022-12-01T08:51:57.412Z,1.72
2022-12-01T08:53:57.790Z,1.79
2022-12-01T08:55:56.115Z,1.78
2022-12-01T08:57:54.512Z,1.83
2022-12-01T08:59:52.720Z,1.89
2022-12-01T09:01:57.534Z,2.04
2022-12-01T09:04:07.714Z,2.08
2022-12-01T09:06:07.335Z,2.06
2022-12-01T09:08:26.467Z,1.98
2022-12-01T09:10:24.695Z,1.95
2022-12-01T09:12:23.514Z,1.97
2022-12-01T09:14:23.332Z,2.01
2022-12-01T09:16:21.715Z,2.04
2022-12-01T09:18:21.641Z,2.12
2022-12-01T09:20:19.834Z,2.21
2022-12-01T09:22:18.378Z,2.24
2022-12-01T09:26:39.006Z,2.35
2022-12-01T09:28:40.619Z,2.32
2022-12-01T09:30:39.507Z,2.28
2022-12-01T09:32:38.521Z,2.28
2022-12-01T09:34:38.497Z,2.27
2022-12-01T09:37:05.625Z,2.27
2022-12-01T09:39:59.207Z,2.30
2022-12-01T09:42:08.850Z,2.36
2022-12-01T09:44:20.852Z,2.34
2022-12-01T09:46:27.488Z,2.38
2022-12-01T09:48:30.070Z,2.38
2022-12-01T09:50:30.929Z,2.39
2022-12-01T09:52:35.669Z,2.37
2022-12-01T09:54:35.810Z,2.33
2022-12-01T09:56:41.639Z,2.38
2022-12-01T09:58:40.570Z,2.41
2022-12-01T10:00:44.330Z,2.46
2022-12-01T10:02:45.365Z,2.53
2022-12-01T10:04:48.581Z,2.54
2022-12-01T10:06:54.974Z,2.56
2022-12-01T10:09:04.396Z,2.51
2022-12-01T10:11:09.361Z,2.60
2022-12-01T10:13:17.622Z,2.68
2022-12-01T10:15:23.769Z,2.53
2022-12-01T10:17:32.526Z,2.48
2022-12-01T10:19:38.374Z,2.38
2022-12-01T10:21:54.037Z,2.36
2022-12-01T10:24:12.914Z,2.39
2022-12-01T10:26:15.463Z,2.38
2022-12-01T10:28:30.933Z,2.34
2022-12-01T10:30:29.648Z,2.44
2022-12-01T10:32:36.879Z,2.57
2022-12-01T10:34:37.716Z,2.65
2022-12-01T10:36:36.304Z,2.68
2022-12-01T10:38:39.275Z,2.57
2022-12-01T10:40:39.638Z,2.58
2022-12-01T10:42:41.271Z,2.50
2022-12-01T10:44:40.368Z,2.41
2022-12-01T10:46:44.811Z,2.38
2022-12-01T10:48:54.910Z,2.36
2022-12-01T10:50:54.832Z,2.38
2022-12-01T10:52:53.219Z,2.35
2022-12-01T10:54:52.755Z,2.39
2022-12-01T10:56:56.757Z,2.39
2022-12-01T10:58:58.356Z,2.34
2022-12-01T11:01:00.950Z,2.29
2022-12-01T11:02:59.911Z,2.31
2022-12-01T11:07:58.159Z,2.24
2022-12-01T11:10:20.016Z,2.28
2022-12-01T11:12:23.953Z,2.22
2022-12-01T11:14:25.844Z,2.21
2022-12-01T11:16:53.058Z,2.14
2022-12-01T11:19:27.984Z,2.11
2022-12-01T11:21:36.503Z,2.07
2022-12-01T11:23:45.753Z,2.07
2022-12-01T11:25:59.664Z,2.08
2022-12-01T11:28:02.211Z,2.02
2022-12-01T11:30:06.447Z,2.00
2022-12-01T11:32:17.903Z,1.99
2022-12-01T11:34:21.161Z,1.98
2022-12-01T11:36:35.178Z,1.95
2022-12-01T11:38:38.422Z,1.91
2022-12-01T11:40:49.435Z,1.90
2022-12-01T11:42:59.745Z,2.04
2022-12-01T11:45:07.665Z,2.03
2022-12-01T11:51:12.603Z,1.70
2022-12-01T11:53:29.504Z,1.67
2022-12-01T11:55:30.074Z,1.74
2022-12-01T11:57:34.566Z,1.86
2022-12-01T11:59:35.371Z,1.84
2022-12-01T12:01:51.913Z,1.74
2022-12-01T12:04:00.388Z,1.70
2022-12-01T12:08:42.158Z,1.62
2022-12-01T12:10:49.291Z,1.55
2022-12-01T12:13:04.911Z,1.55
2022-12-01T12:15:18.470Z,1.52
2022-12-01T12:17:26.380Z,1.50
2022-12-01T12:20:00.342Z,1.46
2022-12-01T12:22:18.644Z,1.41
2022-12-01T12:24:37.848Z,1.41
2022-12-01T12:26:44.025Z,1.41
2022-12-01T12:28:59.702Z,1.41
2022-12-01T12:31:14.817Z,1.39
2022-12-01T12:33:30.860Z,1.39
2022-12-01T12:35:38.607Z,1.38
2022-12-01T12:37:48.163Z,1.32
2022-12-01T12:40:01.110Z,1.33
2022-12-01T12:42:00.718Z,1.29
2022-12-01T12:44:12.214Z,1.27
2022-12-01T12:46:15.282Z,1.25
2022-12-01T12:48:29.143Z,1.28
2022-12-01T12:50:38.443Z,1.26
2022-12-01T12:52:41.933Z,1.27
2022-12-01T12:54:48.313Z,1.25
2022-12-01T12:56:50.683Z,1.23
2022-12-01T12:58:56.673Z,1.18
2022-12-01T13:00:59.028Z,1.16
2022-12-01T13:03:06.097Z,1.17
2022-12-01T13:05:16.238Z,1.16
2022-12-01T13:07:34.058Z,1.19
2022-12-01T13:09:39.960Z,1.17
2022-12-01T13:11:45.355Z,1.13
2022-12-01T13:13:52.812Z,1.22
2022-12-01T13:15:53.945Z,1.33
2022-12-01T13:17:56.331Z,1.32
2022-12-01T13:19:56.032Z,1.27
2022-12-01T13:21:56.197Z,1.23
2022-12-01T13:23:54.915Z,1.12
2022-12-01T13:25:56.322Z,1.02
2022-12-01T13:27:56.323Z,1.00
2022-12-01T13:29:57.190Z,0.93
2022-12-01T13:31:56.247Z,0.88
2022-12-01T13:34:00.872Z,0.88
2022-12-01T13:36:37.979Z,0.85
2022-12-01T13:38:26.169Z,0.81
2022-12-01T13:40:28.521Z,0.82
2022-12-01T13:42:31.994Z,0.80
2022-12-01T13:44:34.916Z,0.83
2022-12-01T13:46:50.766Z,0.84
2022-12-01T13:48:54.073Z,0.82
2022-12-01T13:50:57.994Z,0.82
2022-12-01T13:53:12.048Z,0.84
2022-12-01T13:55:28.098Z,0.86
2022-12-01T13:57:28.586Z,0.83
2022-12-01T13:59:55.639Z,0.81
2022-12-01T14:02:14.579Z,0.79
2022-12-01T14:04:39.597Z,0.81
2022-12-01T14:06:46.411Z,0.82
2022-12-01T14:08:50.241Z,0.83
2022-12-01T14:10:55.346Z,0.90
2022-12-01T14:12:57.379Z,0.89
2022-12-01T14:15:01.291Z,0.87
2022-12-01T14:17:02.626Z,0.85
2022-12-01T14:19:01.102Z,0.84
2022-12-01T14:21:00.571Z,0.77
2022-12-01T14:23:15.291Z,0.77
2022-12-01T14:25:26.944Z,0.71
2022-12-01T14:27:38.808Z,0.69
2022-12-01T14:29:39.004Z,0.68
2022-12-01T14:32:19.320Z,0.71
2022-12-01T14:34:20.057Z,0.68
2022-12-01T14:36:41.379Z,0.68
2022-12-01T14:38:48.439Z,0.65
2022-12-01T14:40:48.939Z,0.65
2022-12-01T14:43:21.253Z,0.61
2022-12-01T14:45:27.971Z,0.55
2022-12-01T14:47:41.968Z,0.55
2022-12-01T14:49:48.911Z,0.54
2022-12-01T14:51:55.344Z,0.50
2022-12-01T14:53:53.882Z,0.43
2022-12-01T14:55:57.561Z,0.41
2022-12-01T14:58:05.174Z,0.41
2022-12-01T15:00:07.497Z,0.38
2022-12-01T15:02:09.971Z,0.37
2022-12-01T15:04:08.692Z,0.38
2022-12-01T15:06:07.687Z,0.36
2022-12-01T15:08:40.799Z,0.40
2022-12-01T15:10:35.692Z,0.43
2022-12-01T15:12:35.538Z,0.43
2022-12-01T15:14:36.193Z,0.42
2022-12-01T15:16:43.378Z,0.42
2022-12-01T15:18:41.822Z,0.44
2022-12-01T15:20:46.359Z,0.47
2022-12-01T15:22:46.052Z,0.46
2022-12-01T15:24:45.742Z,0.60
2022-12-01T15:26:48.431Z,0.69
2022-12-01T15:28:48.179Z,0.73
2022-12-01T15:30:49.456Z,0.68
2022-12-01T15:32:47.984Z,0.77
2022-12-01T15:34:48.360Z,0.77
2022-12-01T15:36:48.417Z,0.64
2022-12-01T15:38:49.229Z,0.69
2022-12-01T15:43:15.838Z,0.63
2022-12-01T15:45:20.493Z,0.56
2022-12-01T15:47:43.478Z,0.60
2022-12-01T15:49:50.413Z,0.59
2022-12-01T15:51:52.064Z,0.60
2022-12-01T15:53:53.839Z,0.58
2022-12-01T15:55:58.587Z,0.57
2022-12-01T15:57:57.964Z,0.54
2022-12-01T15:59:58.476Z,0.49
2022-12-01T16:01:58.624Z,0.46
2022-12-01T16:03:59.555Z,0.52
2022-12-01T16:05:59.106Z,0.47
2022-12-01T16:08:13.882Z,0.47
2022-12-01T16:10:26.013Z,0.45
2022-12-01T16:12:25.931Z,0.44
2022-12-01T16:14:26.069Z,0.49
2022-12-01T16:16:39.620Z,0.50
2022-12-01T16:18:39.241Z,0.48
2022-12-01T16:20:43.646Z,0.52
2022-12-01T16:22:45.647Z,0.55
2022-12-01T16:24:48.071Z,0.55
2022-12-01T16:26:51.715Z,0.56
2022-12-01T16:28:49.890Z,0.55
2022-12-01T16:30:48.632Z,0.54
2022-12-01T16:32:49.399Z,0.56
2022-12-01T16:34:49.327Z,0.56
2022-12-01T16:36:47.732Z,0.56
2022-12-01T16:38:46.013Z,0.59
2022-12-01T16:40:44.874Z,0.61
2022-12-01T16:42:43.048Z,0.66
2022-12-01T16:44:41.908Z,0.66
2022-12-01T16:46:40.614Z,0.64
2022-12-01T16:48:38.963Z,0.67
2022-12-01T16:50:39.303Z,0.63
2022-12-01T16:52:45.745Z,0.69
2022-12-01T16:54:44.405Z,0.70
2022-12-01T16:56:42.923Z,0.75
2022-12-01T16:58:41.390Z,0.76
2022-12-01T17:00:39.482Z,0.78
2022-12-01T17:02:37.978Z,0.78
2022-12-01T17:04:36.341Z,0.79
2022-12-01T17:06:36.204Z,0.79
2022-12-01T17:08:35.317Z,0.82
2022-12-01T17:10:33.585Z,0.93
2022-12-01T17:12:32.048Z,0.99
2022-12-01T17:14:30.470Z,1.08
2022-12-01T17:16:28.710Z,1.08
2022-12-01T17:18:28.215Z,1.00
2022-12-01T17:20:26.494Z,1.01
2022-12-01T17:22:26.028Z,0.99
2022-12-01T17:24:26.051Z,0.93
2022-12-01T17:26:24.699Z,0.88
2022-12-01T17:28:23.224Z,0.90
2022-12-01T17:30:26.875Z,0.86
2022-12-01T17:32:25.196Z,0.94
2022-12-01T17:34:27.251Z,1.00
2022-12-01T17:36:25.357Z,0.99
2022-12-01T17:38:25.047Z,0.97
2022-12-01T17:40:23.528Z,0.96
2022-12-01T17:42:21.995Z,0.92
2022-12-01T17:44:20.271Z,0.95
2022-12-01T17:46:18.880Z,0.94
2022-12-01T17:48:17.366Z,0.95
2022-12-01T17:50:16.016Z,0.96
2022-12-01T17:52:14.303Z,0.93
2022-12-01T17:54:14.138Z,0.94
2022-12-01T17:56:14.771Z,0.89
2022-12-01T17:58:13.228Z,0.89
2022-12-01T18:00:12.892Z,0.89
2022-12-01T18:02:13.657Z,0.86
2022-12-01T18:04:11.900Z,0.85
2022-12-01T18:06:10.686Z,0.87
2022-12-01T18:08:09.005Z,0.91
2022-12-01T18:10:20.444Z,0.91
2022-12-01T18:12:26.230Z,0.91
2022-12-01T18:14:25.552Z,0.90
2022-12-01T18:16:27.164Z,0.87
2022-12-01T18:18:25.791Z,0.86
2022-12-01T18:20:24.093Z,0.90
2022-12-01T18:22:22.645Z,0.88
2022-12-01T18:24:20.843Z,0.89
2022-12-01T18:26:22.356Z,0.89
2022-12-01T18:28:20.680Z,0.91
2022-12-01T18:30:18.980Z,0.92
2022-12-01T18:32:17.499Z,0.93
2022-12-01T18:34:16.167Z,0.90
2022-12-01T18:36:16.486Z,0.93
2022-12-01T18:38:15.833Z,0.92
2022-12-01T18:40:14.828Z,0.95
2022-12-01T18:42:14.713Z,0.94
2022-12-01T18:44:12.999Z,0.92
2022-12-01T18:46:12.393Z,0.96
2022-12-01T18:48:11.707Z,0.93
2022-12-01T18:50:10.830Z,0.95
2022-12-01T18:52:09.058Z,0.98
2022-12-01T18:54:09.200Z,0.95
2022-12-01T18:56:11.773Z,1.00
2022-12-01T18:58:12.034Z,1.04
2022-12-01T19:00:11.609Z,1.26
2022-12-01T19:02:11.527Z,1.35
2022-12-01T19:04:10.782Z,1.31
2022-12-01T19:06:10.033Z,1.27
2022-12-01T19:08:08.697Z,1.25
2022-12-01T19:10:09.705Z,1.20
2022-12-01T19:12:08.513Z,1.03
2022-12-01T19:14:08.518Z,1.01
2022-12-01T19:16:08.157Z,0.89
2022-12-01T19:18:09.005Z,0.99
2022-12-01T19:20:08.844Z,1.06
2022-12-01T19:22:07.231Z,0.95
2022-12-01T19:24:06.518Z,0.91
2022-12-01T19:26:06.236Z,0.89
2022-12-01T19:28:05.417Z,0.83
2022-12-01T19:30:09.388Z,0.81
2022-12-01T19:32:08.338Z,0.78
2022-12-01T19:34:07.421Z,0.75
2022-12-01T19:36:07.090Z,0.78
2022-12-01T19:38:05.376Z,0.77
2022-12-01T19:40:03.720Z,0.75
2022-12-01T19:42:02.102Z,0.74
2022-12-01T19:44:00.357Z,0.75
2022-12-01T19:46:04.889Z,0.73
2022-12-01T19:48:04.200Z,0.80
2022-12-01T19:50:02.813Z,0.85
2022-12-01T19:52:00.975Z,0.85
2022-12-01T19:53:59.635Z,0.98
2022-12-01T19:56:02.254Z,1.13
2022-12-01T19:58:00.623Z,1.18
2022-12-01T19:59:58.929Z,1.14
2022-12-01T20:01:58.725Z,1.12
2022-12-01T20:03:57.217Z,1.08
2022-12-01T20:05:55.499Z,0.98
2022-12-01T20:07:53.947Z,0.93
2022-12-01T20:09:52.247Z,0.85
2022-12-01T20:11:52.295Z,0.83
2022-12-01T20:13:51.502Z,0.82
2022-12-01T20:15:49.728Z,0.81
2022-12-01T20:17:50.359Z,0.80
2022-12-01T20:19:48.567Z,0.79
2022-12-01T20:21:46.842Z,0.80
2022-12-01T20:23:46.116Z,0.82
2022-12-01T20:25:44.348Z,0.84
2022-12-01T20:27:44.977Z,0.84
2022-12-01T20:29:43.402Z,0.84
2022-12-01T20:31:42.992Z,0.87
2022-12-01T20:33:43.819Z,0.94
2022-12-01T20:35:42.136Z,0.91
2022-12-01T20:37:40.509Z,0.85
2022-12-01T20:39:41.521Z,0.77
2022-12-01T20:41:41.418Z,0.76
2022-12-01T20:43:42.029Z,0.71
2022-12-01T20:45:40.244Z,0.73
2022-12-01T20:47:38.595Z,0.71
2022-12-01T20:49:38.066Z,0.67
2022-12-01T20:51:36.384Z,0.64
2022-12-01T20:53:34.861Z,0.65
2022-12-01T20:55:32.949Z,0.69
2022-12-01T20:57:31.383Z,0.74
2022-12-01T20:59:30.978Z,0.77
2022-12-01T21:01:29.428Z,0.77
2022-12-01T21:03:27.909Z,0.77
2022-12-01T21:05:28.217Z,0.74
2022-12-01T21:07:26.666Z,0.74
2022-12-01T21:09:25.039Z,0.77
2022-12-01T21:11:46.670Z,0.79
2022-12-01T21:13:44.175Z,0.73
2022-12-01T21:15:50.474Z,0.74
2022-12-01T21:17:54.051Z,0.73
2022-12-01T21:19:57.864Z,0.73
2022-12-01T21:21:57.888Z,0.75
2022-12-01T21:24:11.077Z,0.80
2022-12-01T21:26:15.231Z,0.75
2022-12-01T21:28:19.624Z,0.78
2022-12-01T21:30:20.491Z,0.77
2022-12-01T21:32:20.436Z,0.77
2022-12-01T21:34:21.764Z,0.76
2022-12-01T21:36:25.194Z,0.77
2022-12-01T21:38:27.183Z,0.73
2022-12-01T21:40:27.317Z,0.74
2022-12-01T21:42:28.235Z,0.68
2022-12-01T21:44:34.082Z,0.66
2022-12-01T21:46:32.728Z,0.61
2022-12-01T21:48:36.886Z,0.67
2022-12-01T21:50:35.289Z,0.65
2022-12-01T21:52:40.463Z,0.63
2022-12-01T21:54:44.836Z,0.61
2022-12-01T21:56:59.324Z,0.60
2022-12-01T21:59:00.439Z,0.60
2022-12-01T22:01:00.217Z,0.62
2022-12-01T22:03:36.322Z,0.63
2022-12-01T22:06:06.868Z,0.61
2022-12-01T22:08:18.695Z,0.59
2022-12-01T22:10:47.019Z,0.58
2022-12-01T22:12:46.771Z,0.66
2022-12-01T22:14:45.115Z,0.70
2022-12-01T22:16:45.232Z,0.81
2022-12-01T22:18:46.513Z,0.84
2022-12-01T22:20:44.908Z,0.87
2022-12-01T22:22:43.367Z,0.81
2022-12-01T22:24:43.667Z,0.71
2022-12-01T22:26:47.787Z,0.72
2022-12-01T22:28:50.493Z,0.77
2022-12-01T22:30:52.074Z,0.71
2022-12-01T22:32:57.216Z,0.71
2022-12-01T22:34:59.059Z,0.68
2022-12-01T22:36:57.874Z,0.65
2022-12-01T22:38:56.689Z,0.64
2022-12-01T22:40:59.985Z,0.68
2022-12-01T22:43:01.532Z,0.66
2022-12-01T22:45:10.277Z,0.67
2022-12-01T22:47:13.430Z,0.64
2022-12-01T22:49:22.289Z,0.63
2022-12-01T22:51:40.906Z,0.59
2022-12-01T22:53:39.306Z,0.65
2022-12-01T22:55:37.524Z,0.60
2022-12-01T22:57:37.310Z,0.56
2022-12-01T22:59:45.338Z,0.53
2022-12-01T23:01:50.413Z,0.51
2022-12-01T23:03:49.573Z,0.49
2022-12-01T23:05:54.691Z,0.47
2022-12-01T23:07:54.134Z,0.46
2022-12-01T23:09:52.575Z,0.45
2022-12-01T23:11:53.536Z,0.44
2022-12-01T23:13:51.849Z,0.46
2022-12-01T23:15:51.877Z,0.44
2022-12-01T23:17:52.719Z,0.43
2022-12-01T23:19:53.331Z,0.47
2022-12-01T23:21:53.588Z,0.47
2022-12-01T23:23:51.966Z,0.45
2022-12-01T23:25:51.781Z,0.45
2022-12-01T23:27:51.797Z,0.43
2022-12-01T23:29:50.034Z,0.41
2022-12-01T23:31:49.383Z,0.42
2022-12-01T23:33:49.243Z,0.43
2022-12-01T23:35:52.181Z,0.43
2022-12-01T23:37:50.558Z,0.41
2022-12-01T23:39:49.079Z,0.42
2022-12-01T23:41:49.781Z,0.43
2022-12-01T23:43:48.213Z,0.41
2022-12-01T23:45:47.111Z,0.44
2022-12-01T23:47:45.377Z,0.42
2022-12-01T23:49:46.492Z,0.39
2022-12-01T23:51:48.100Z,0.37
2022-12-01T23:53:47.397Z,0.38
2022-12-01T23:55:45.727Z,0.36
2022-12-01T23:57:44.632Z,0.37
2022-12-01T23:59:43.631Z,0.39
